createdAt,value
2019-05-18T00:03:10.405Z,28.36
2019-05-18T00:08:16.805Z,29.70
2019-05-18T00:13:23.168Z,29.69
2019-05-18T00:18:29.361Z,28.39
2019-05-18T00:23:35.536Z,30.99
2019-05-18T00:28:42.186Z,29.79
2019-05-18T00:33:48.497Z,28.35
2019-05-18T00:38:54.651Z,30.33
2019-05-18T00:44:00.868Z,29.90
2019-05-18T00:49:07.393Z,31.82
2019-05-18T00:54:13.647Z,31.12
2019-05-18T00:59:20.173Z,32.01
2019-05-18T01:04:26.599Z,30.85
2019-05-18T01:09:33.091Z,31.12
2019-05-18T01:14:39.383Z,32.31
2019-05-18T01:19:45.449Z,31.77
2019-05-18T01:24:51.979Z,33.19
2019-05-18T01:29:58.335Z,32.08
2019-05-18T01:35:04.705Z,32.10
2019-05-18T01:40:10.993Z,32.15
2019-05-18T01:45:17.689Z,31.38
2019-05-18T01:50:24.071Z,32.36
2019-05-18T01:55:30.205Z,32.07
2019-05-18T02:00:36.536Z,32.39
2019-05-18T02:05:42.698Z,32.81
2019-05-18T02:10:49.018Z,33.96
2019-05-18T02:15:55.525Z,30.80
2019-05-18T02:21:02.273Z,30.62
2019-05-18T02:26:08.431Z,33.07
2019-05-18T02:31:14.717Z,29.37
2019-05-18T02:36:21.119Z,29.72
2019-05-18T02:41:27.412Z,30.95
2019-05-18T02:46:33.458Z,30.53
2019-05-18T02:51:39.748Z,31.38
2019-05-18T02:56:46.036Z,30.93
2019-05-18T03:01:52.206Z,31.30
2019-05-18T03:06:58.799Z,32.15
2019-05-18T03:12:05.300Z,31.62
2019-05-18T03:17:11.703Z,31.67
2019-05-18T03:22:17.944Z,35.20
2019-05-18T03:27:24.038Z,30.85
2019-05-18T03:32:30.439Z,31.17
2019-05-18T03:37:36.856Z,32.03
2019-05-18T03:42:43.346Z,33.90
2019-05-18T03:47:49.542Z,34.54
2019-05-18T03:52:55.732Z,32.48
2019-05-18T03:58:01.949Z,35.07
2019-05-18T04:03:08.307Z,34.62
2019-05-18T04:08:14.400Z,32.41
2019-05-18T04:13:23.174Z,33.66
2019-05-18T04:18:29.314Z,31.97
2019-05-18T04:23:35.609Z,32.62
2019-05-18T04:28:41.751Z,31.50
2019-05-18T04:33:48.332Z,33.16
2019-05-18T04:38:54.620Z,31.78
2019-05-18T04:44:00.944Z,32.00
2019-05-18T04:49:07.393Z,31.05
2019-05-18T04:54:13.660Z,30.00
2019-05-18T04:59:19.917Z,31.80
2019-05-18T05:04:26.397Z,34.04
2019-05-18T05:09:32.845Z,29.61
2019-05-18T05:14:39.463Z,28.51
2019-05-18T05:19:45.756Z,29.31
2019-05-18T05:24:52.516Z,28.37
2019-05-18T05:29:58.975Z,29.05
2019-05-18T05:35:05.549Z,29.81
2019-05-18T05:40:11.980Z,27.65
2019-05-18T05:45:18.526Z,28.02
2019-05-18T05:50:35.082Z,28.22
2019-05-18T05:55:31.722Z,27.76
2019-05-18T06:00:38.275Z,27.79
2019-05-18T06:05:44.608Z,28.07
2019-05-18T06:10:51.206Z,27.18
2019-05-18T06:15:57.593Z,27.42
2019-05-18T06:21:04.143Z,27.29
2019-05-18T06:26:10.631Z,27.08
2019-05-18T06:31:17.382Z,26.39
2019-05-18T06:36:24.315Z,26.39
2019-05-18T06:41:31.522Z,25.37
2019-05-18T06:46:37.991Z,25.44
2019-05-18T06:51:45.666Z,24.31
2019-05-18T06:56:52.687Z,24.64
2019-05-18T07:01:59.774Z,23.42
2019-05-18T07:07:06.352Z,24.07
2019-05-18T07:12:13.123Z,23.53
2019-05-18T07:17:20.751Z,23.50
2019-05-18T07:22:27.181Z,22.72
2019-05-18T07:27:37.006Z,23.35
2019-05-18T07:32:43.444Z,22.40
2019-05-18T07:37:50.042Z,23.02
2019-05-18T07:42:56.197Z,22.26
2019-05-18T07:48:02.816Z,21.65
2019-05-18T07:53:09.061Z,21.22
2019-05-18T07:58:15.612Z,22.22
2019-05-18T08:03:21.864Z,20.56
2019-05-18T08:08:28.523Z,19.56
2019-05-18T08:13:34.900Z,18.00
2019-05-18T08:18:41.173Z,17.99
2019-05-18T08:23:47.725Z,17.17
2019-05-18T08:28:54.606Z,16.52
2019-05-18T08:34:00.937Z,16.91
2019-05-18T08:39:07.433Z,16.21
2019-05-18T08:44:13.657Z,14.23
2019-05-18T08:49:20.214Z,14.41
2019-05-18T08:54:26.397Z,14.17
2019-05-18T08:59:33.119Z,14.24
2019-05-18T09:04:39.689Z,12.80
2019-05-18T09:09:45.984Z,12.61
2019-05-18T09:14:54.411Z,12.05
2019-05-18T09:20:00.659Z,11.84
2019-05-18T09:25:07.070Z,12.69
2019-05-18T09:30:13.865Z,11.52
2019-05-18T09:35:20.633Z,11.11
2019-05-18T09:40:27.137Z,11.22
2019-05-18T09:45:33.241Z,10.42
2019-05-18T09:50:39.552Z,11.00
2019-05-18T09:55:45.857Z,10.56
2019-05-18T10:00:52.186Z,11.64
2019-05-18T10:05:59.518Z,10.53
2019-05-18T10:11:05.988Z,10.81
2019-05-18T10:16:12.286Z,10.95
2019-05-18T10:21:18.747Z,10.11
2019-05-18T10:26:24.979Z,10.85
2019-05-18T10:31:31.410Z,10.61
2019-05-18T10:36:38.048Z,9.91
2019-05-18T10:41:44.581Z,10.48
2019-05-18T10:46:50.889Z,9.77
2019-05-18T10:51:58.471Z,10.72
2019-05-18T10:57:04.987Z,9.96
2019-05-18T11:02:11.635Z,10.12
2019-05-18T11:07:17.775Z,9.18
2019-05-18T11:12:24.076Z,10.20
2019-05-18T11:17:30.876Z,10.92
2019-05-18T11:22:37.281Z,10.67
2019-05-18T11:27:43.653Z,10.96
2019-05-18T11:32:53.801Z,10.35
2019-05-18T11:37:51.415Z,10.02
2019-05-18T11:42:57.991Z,8.99
2019-05-18T11:48:04.320Z,9.42
2019-05-18T11:53:10.900Z,8.74
2019-05-18T11:58:17.237Z,8.89
2019-05-18T12:03:23.743Z,10.26
2019-05-18T12:08:30.126Z,8.99
2019-05-18T12:13:36.543Z,9.24
2019-05-18T12:18:44.353Z,9.52
2019-05-18T12:23:50.717Z,9.16
2019-05-18T12:28:57.192Z,8.84
2019-05-18T12:34:03.727Z,9.05
2019-05-18T12:39:10.021Z,9.11
2019-05-18T12:44:16.550Z,8.90
2019-05-18T12:49:22.885Z,11.38
2019-05-18T12:54:44.111Z,9.68
2019-05-18T12:59:35.938Z,8.96
2019-05-18T13:04:42.439Z,6.94
2019-05-18T13:09:48.614Z,6.65
2019-05-18T13:14:55.306Z,6.52
2019-05-18T13:20:02.332Z,6.22
2019-05-18T13:25:08.790Z,6.96
2019-05-18T13:30:19.392Z,7.52
2019-05-18T13:35:16.263Z,6.13
2019-05-18T13:40:22.729Z,5.66
2019-05-18T13:45:29.141Z,6.24
2019-05-18T13:50:35.809Z,5.67
2019-05-18T13:55:42.407Z,5.69
2019-05-18T14:00:48.660Z,5.83
2019-05-18T14:05:55.050Z,5.31
2019-05-18T14:11:01.468Z,5.50
2019-05-18T14:16:07.885Z,5.45
2019-05-18T14:21:14.211Z,5.32
2019-05-18T14:26:20.760Z,5.53
2019-05-18T14:31:27.048Z,10.02
2019-05-18T14:36:33.357Z,4.93
2019-05-18T14:41:42.440Z,5.42
2019-05-18T14:46:49.021Z,5.78
2019-05-18T14:51:55.227Z,5.09
2019-05-18T14:57:01.536Z,5.27
2019-05-18T15:02:07.914Z,5.46
2019-05-18T15:07:15.529Z,4.93
2019-05-18T15:12:22.085Z,4.81
2019-05-18T15:17:28.400Z,5.55
2019-05-18T15:22:34.747Z,5.05
2019-05-18T15:27:41.110Z,5.21
2019-05-18T15:32:47.336Z,6.61
2019-05-18T15:37:53.612Z,4.95
2019-05-18T15:42:59.987Z,5.30
2019-05-18T15:48:06.808Z,5.33
2019-05-18T15:53:13.064Z,5.65
2019-05-18T15:58:19.401Z,12.67
2019-05-18T16:03:26.043Z,10.25
2019-05-18T16:08:32.273Z,12.93
2019-05-18T16:13:38.605Z,15.22
2019-05-18T16:18:45.311Z,12.75
2019-05-18T16:23:51.775Z,15.17
2019-05-18T16:28:58.092Z,22.52
2019-05-18T16:34:04.160Z,17.12
2019-05-18T16:39:10.701Z,16.59
2019-05-18T16:44:16.886Z,15.39
2019-05-18T16:49:23.299Z,15.92
2019-05-18T16:54:29.476Z,17.33
2019-05-18T16:59:35.763Z,19.22
2019-05-18T17:04:42.014Z,15.48
2019-05-18T17:09:48.415Z,16.37
2019-05-18T17:14:54.646Z,15.34
2019-05-18T17:20:04.347Z,13.65
2019-05-18T17:25:10.998Z,16.64
2019-05-18T17:30:17.608Z,14.39
2019-05-18T17:35:23.943Z,14.13
2019-05-18T17:40:30.360Z,14.53
2019-05-18T17:45:37.036Z,15.59
2019-05-18T17:50:43.355Z,16.51
2019-05-18T17:55:50.604Z,18.35
2019-05-18T18:00:56.869Z,16.23
2019-05-18T18:06:03.161Z,17.68
2019-05-18T18:11:11.893Z,20.86
2019-05-18T18:16:19.428Z,19.60
2019-05-18T18:21:26.226Z,19.04
2019-05-18T18:26:32.654Z,18.21
2019-05-18T18:31:39.120Z,19.86
2019-05-18T18:36:45.357Z,20.84
2019-05-18T18:41:51.596Z,22.62
2019-05-18T18:46:58.333Z,24.23
2019-05-18T18:52:04.618Z,23.54
2019-05-18T18:57:11.236Z,30.21
2019-05-18T19:02:17.892Z,29.06
2019-05-18T19:07:24.137Z,27.16
2019-05-18T19:12:30.604Z,28.88
2019-05-18T19:17:36.711Z,25.61
2019-05-18T19:22:43.208Z,25.60
2019-05-18T19:27:55.116Z,32.81
2019-05-18T19:32:52.069Z,28.80
2019-05-18T19:37:58.313Z,29.04
2019-05-18T19:43:04.788Z,27.85
2019-05-18T19:48:11.511Z,25.95
2019-05-18T19:53:18.002Z,24.44
2019-05-18T19:58:24.203Z,24.06
2019-05-18T20:03:30.463Z,24.37
2019-05-18T20:08:36.953Z,24.62
2019-05-18T20:13:43.315Z,28.06
2019-05-18T20:18:49.961Z,30.99
2019-05-18T20:23:56.272Z,25.39
2019-05-18T20:29:02.408Z,23.94
2019-05-18T20:34:08.760Z,25.93
2019-05-18T20:39:15.126Z,26.77
2019-05-18T20:44:21.608Z,26.50
2019-05-18T20:49:27.916Z,25.89
2019-05-18T20:54:34.291Z,27.18
2019-05-18T20:59:40.509Z,26.28
2019-05-18T21:04:46.858Z,27.00
2019-05-18T21:09:52.929Z,26.49
2019-05-18T21:14:59.373Z,27.65
2019-05-18T21:20:05.891Z,28.73
2019-05-18T21:25:12.195Z,26.92
2019-05-18T21:30:18.552Z,26.38
2019-05-18T21:35:25.460Z,28.98
2019-05-18T21:40:31.809Z,27.83
2019-05-18T21:45:38.296Z,28.20
2019-05-18T21:50:44.891Z,28.35
2019-05-18T21:55:51.350Z,27.00
2019-05-18T22:00:58.448Z,28.35
2019-05-18T22:06:04.909Z,30.32
2019-05-18T22:11:11.186Z,28.18
2019-05-18T22:16:17.483Z,29.73
2019-05-18T22:21:23.811Z,28.35
2019-05-18T22:26:30.189Z,29.67
2019-05-18T22:31:36.625Z,30.81
2019-05-18T22:36:43.115Z,30.31
2019-05-18T22:41:49.705Z,30.97
2019-05-18T22:46:56.234Z,32.04
2019-05-18T22:52:02.363Z,30.35
2019-05-18T22:57:08.765Z,32.34
2019-05-18T23:02:15.125Z,30.34
2019-05-18T23:07:21.830Z,32.80
2019-05-18T23:12:28.200Z,32.19
2019-05-18T23:17:34.526Z,33.44
2019-05-18T23:22:41.850Z,32.97
2019-05-18T23:27:48.066Z,34.58
2019-05-18T23:32:55.784Z,36.29
2019-05-18T23:38:02.030Z,34.44
2019-05-18T23:43:08.242Z,36.09
2019-05-18T23:48:14.867Z,37.54
2019-05-18T23:53:21.237Z,38.23
2019-05-18T23:58:27.617Z,39.39
